sensor_id;sensor_type;location;lat;lon;timestamp;temperature;humidity
31837;DHT22;18401;49.344;6.240;2023-08-21T00:01:14;18.50;99.90
31837;DHT22;18401;49.344;6.240;2023-08-21T00:03:40;18.40;99.90
31837;DHT22;18401;49.344;6.240;2023-08-21T00:06:06;18.50;99.90
31837;DHT22;18401;49.344;6.240;2023-08-21T00:08:31;18.50;99.90
31837;DHT22;18401;49.344;6.240;2023-08-21T00:10:57;18.50;99.90
31837;DHT22;18401;49.344;6.240;2023-08-21T00:13:23;18.50;99.90
31837;DHT22;18401;49.344;6.240;2023-08-21T00:15:48;18.50;99.90
31837;DHT22;18401;49.344;6.240;2023-08-21T00:18:14;18.50;99.90
31837;DHT22;18401;49.344;6.240;2023-08-21T00:20:40;18.40;99.90
31837;DHT22;18401;49.344;6.240;2023-08-21T00:23:07;18.30;99.90
31837;DHT22;18401;49.344;6.240;2023-08-21T00:25:34;18.30;99.90
31837;DHT22;18401;49.344;6.240;2023-08-21T00:28:00;18.30;99.90
31837;DHT22;18401;49.344;6.240;2023-08-21T00:30:25;18.40;99.90
31837;DHT22;18401;49.344;6.240;2023-08-21T00:32:51;18.40;99.90
31837;DHT22;18401;49.344;6.240;2023-08-21T00:35:16;18.40;99.90
31837;DHT22;18401;49.344;6.240;2023-08-21T00:37:42;18.40;99.90
31837;DHT22;18401;49.344;6.240;2023-08-21T00:40:08;18.30;99.90
31837;DHT22;18401;49.344;6.240;2023-08-21T00:42:34;18.40;99.90
31837;DHT22;18401;49.344;6.240;2023-08-21T00:45:00;18.30;99.90
31837;DHT22;18401;49.344;6.240;2023-08-21T00:47:25;18.30;99.90
31837;DHT22;18401;49.344;6.240;2023-08-21T00:49:51;18.20;99.90
31837;DHT22;18401;49.344;6.240;2023-08-21T00:52:17;18.20;99.90
31837;DHT22;18401;49.344;6.240;2023-08-21T00:54:43;18.10;99.90
31837;DHT22;18401;49.344;6.240;2023-08-21T00:57:10;18.10;99.90
31837;DHT22;18401;49.344;6.240;2023-08-21T00:59:37;18.10;99.90
31837;DHT22;18401;49.344;6.240;2023-08-21T01:02:03;18.10;99.90
31837;DHT22;18401;49.344;6.240;2023-08-21T01:04:29;17.80;99.90
31837;DHT22;18401;49.344;6.240;2023-08-21T01:06:54;17.90;99.90
31837;DHT22;18401;49.344;6.240;2023-08-21T01:09:33;17.90;99.90
31837;DHT22;18401;49.344;6.240;2023-08-21T01:12:12;17.80;99.90
31837;DHT22;18401;49.344;6.240;2023-08-21T01:15:07;17.90;99.90
31837;DHT22;18401;49.344;6.240;2023-08-21T01:17:39;17.80;99.90
31837;DHT22;18401;49.344;6.240;2023-08-21T01:20:07;18.00;99.90
31837;DHT22;18401;49.344;6.240;2023-08-21T01:22:39;18.00;99.90
31837;DHT22;18401;49.344;6.240;2023-08-21T01:25:06;17.90;99.90
31837;DHT22;18401;49.344;6.240;2023-08-21T01:27:33;17.80;99.90
31837;DHT22;18401;49.344;6.240;2023-08-21T01:30:01;17.80;99.90
31837;DHT22;18401;49.344;6.240;2023-08-21T01:32:35;17.90;99.90
31837;DHT22;18401;49.344;6.240;2023-08-21T01:35:03;18.00;99.90
31837;DHT22;18401;49.344;6.240;2023-08-21T01:37:31;18.20;99.90
31837;DHT22;18401;49.344;6.240;2023-08-21T01:39:59;18.10;99.90
31837;DHT22;18401;49.344;6.240;2023-08-21T01:42:25;18.00;99.90
31837;DHT22;18401;49.344;6.240;2023-08-21T01:44:51;18.00;99.90
31837;DHT22;18401;49.344;6.240;2023-08-21T01:47:16;18.00;99.90
31837;DHT22;18401;49.344;6.240;2023-08-21T01:49:42;18.10;99.90
31837;DHT22;18401;49.344;6.240;2023-08-21T01:52:08;18.10;99.90
31837;DHT22;18401;49.344;6.240;2023-08-21T01:54:33;18.10;99.90
31837;DHT22;18401;49.344;6.240;2023-08-21T01:56:59;18.10;99.90
31837;DHT22;18401;49.344;6.240;2023-08-21T01:59:25;18.00;99.90
31837;DHT22;18401;49.344;6.240;2023-08-21T02:01:50;17.90;99.90
31837;DHT22;18401;49.344;6.240;2023-08-21T02:04:16;17.80;99.90
31837;DHT22;18401;49.344;6.240;2023-08-21T02:06:42;17.80;99.90
31837;DHT22;18401;49.344;6.240;2023-08-21T02:09:09;17.70;99.90
31837;DHT22;18401;49.344;6.240;2023-08-21T02:11:35;17.70;99.90
31837;DHT22;18401;49.344;6.240;2023-08-21T02:14:01;17.60;99.90
31837;DHT22;18401;49.344;6.240;2023-08-21T02:16:27;17.70;99.90
31837;DHT22;18401;49.344;6.240;2023-08-21T02:18:53;17.70;99.90
31837;DHT22;18401;49.344;6.240;2023-08-21T02:21:19;17.70;99.90
31837;DHT22;18401;49.344;6.240;2023-08-21T02:23:44;17.80;99.90
31837;DHT22;18401;49.344;6.240;2023-08-21T02:26:10;17.70;99.90
31837;DHT22;18401;49.344;6.240;2023-08-21T02:28:35;17.70;99.90
31837;DHT22;18401;49.344;6.240;2023-08-21T02:31:01;17.80;99.90
31837;DHT22;18401;49.344;6.240;2023-08-21T02:33:27;18.00;99.90
31837;DHT22;18401;49.344;6.240;2023-08-21T02:35:52;18.10;99.90
31837;DHT22;18401;49.344;6.240;2023-08-21T02:38:18;18.00;99.90
31837;DHT22;18401;49.344;6.240;2023-08-21T02:40:44;18.00;99.90
31837;DHT22;18401;49.344;6.240;2023-08-21T02:43:10;17.90;99.90
31837;DHT22;18401;49.344;6.240;2023-08-21T02:45:35;17.90;99.90
31837;DHT22;18401;49.344;6.240;2023-08-21T02:48:01;17.90;99.90
31837;DHT22;18401;49.344;6.240;2023-08-21T02:50:26;17.90;99.90
31837;DHT22;18401;49.344;6.240;2023-08-21T02:52:52;18.00;99.90
31837;DHT22;18401;49.344;6.240;2023-08-21T02:55:18;18.00;99.90
31837;DHT22;18401;49.344;6.240;2023-08-21T02:57:43;17.80;99.90
31837;DHT22;18401;49.344;6.240;2023-08-21T03:00:10;17.60;99.90
31837;DHT22;18401;49.344;6.240;2023-08-21T03:02:37;17.60;99.90
31837;DHT22;18401;49.344;6.240;2023-08-21T03:05:03;17.60;99.90
31837;DHT22;18401;49.344;6.240;2023-08-21T03:07:29;17.60;99.90
31837;DHT22;18401;49.344;6.240;2023-08-21T03:09:55;17.60;99.90
31837;DHT22;18401;49.344;6.240;2023-08-21T03:12:20;17.60;99.90
31837;DHT22;18401;49.344;6.240;2023-08-21T03:14:46;17.60;99.90
31837;DHT22;18401;49.344;6.240;2023-08-21T03:17:12;17.50;99.90
31837;DHT22;18401;49.344;6.240;2023-08-21T03:19:37;17.50;99.90
31837;DHT22;18401;49.344;6.240;2023-08-21T03:22:03;17.50;99.90
31837;DHT22;18401;49.344;6.240;2023-08-21T03:24:29;17.50;99.90
31837;DHT22;18401;49.344;6.240;2023-08-21T03:26:54;17.60;99.90
31837;DHT22;18401;49.344;6.240;2023-08-21T03:29:20;17.70;99.90
31837;DHT22;18401;49.344;6.240;2023-08-21T03:31:53;17.70;99.90
31837;DHT22;18401;49.344;6.240;2023-08-21T03:34:22;17.60;99.90
31837;DHT22;18401;49.344;6.240;2023-08-21T03:36:48;17.50;99.90
31837;DHT22;18401;49.344;6.240;2023-08-21T03:39:13;17.40;99.90
31837;DHT22;18401;49.344;6.240;2023-08-21T03:41:39;17.50;99.90
31837;DHT22;18401;49.344;6.240;2023-08-21T03:44:05;17.40;99.90
31837;DHT22;18401;49.344;6.240;2023-08-21T03:46:30;17.20;99.90
31837;DHT22;18401;49.344;6.240;2023-08-21T03:48:56;17.30;99.90
31837;DHT22;18401;49.344;6.240;2023-08-21T03:51:22;17.30;99.90
31837;DHT22;18401;49.344;6.240;2023-08-21T03:53:48;17.50;99.90
31837;DHT22;18401;49.344;6.240;2023-08-21T03:56:14;17.60;99.90
31837;DHT22;18401;49.344;6.240;2023-08-21T03:58:40;17.70;99.90
31837;DHT22;18401;49.344;6.240;2023-08-21T04:01:05;17.70;99.90
31837;DHT22;18401;49.344;6.240;2023-08-21T04:03:31;17.60;99.90
31837;DHT22;18401;49.344;6.240;2023-08-21T04:05:57;17.60;99.90
31837;DHT22;18401;49.344;6.240;2023-08-21T04:08:23;17.60;99.90
31837;DHT22;18401;49.344;6.240;2023-08-21T04:10:48;17.60;99.90
31837;DHT22;18401;49.344;6.240;2023-08-21T04:13:14;17.70;99.90
31837;DHT22;18401;49.344;6.240;2023-08-21T04:15:44;17.60;99.90
31837;DHT22;18401;49.344;6.240;2023-08-21T04:18:10;17.60;99.90
31837;DHT22;18401;49.344;6.240;2023-08-21T04:20:37;17.50;99.90
31837;DHT22;18401;49.344;6.240;2023-08-21T04:23:03;17.50;99.90
31837;DHT22;18401;49.344;6.240;2023-08-21T04:25:28;17.40;99.90
31837;DHT22;18401;49.344;6.240;2023-08-21T04:27:54;17.30;99.90
31837;DHT22;18401;49.344;6.240;2023-08-21T04:30:20;17.20;99.90
31837;DHT22;18401;49.344;6.240;2023-08-21T04:32:46;17.00;99.90
31837;DHT22;18401;49.344;6.240;2023-08-21T04:35:12;17.10;99.90
31837;DHT22;18401;49.344;6.240;2023-08-21T04:37:42;17.20;99.90
31837;DHT22;18401;49.344;6.240;2023-08-21T04:40:08;17.30;99.90
31837;DHT22;18401;49.344;6.240;2023-08-21T04:42:34;17.40;99.90
31837;DHT22;18401;49.344;6.240;2023-08-21T04:45:00;17.50;99.90
31837;DHT22;18401;49.344;6.240;2023-08-21T04:47:27;17.50;99.90
31837;DHT22;18401;49.344;6.240;2023-08-21T04:49:54;17.60;99.90
31837;DHT22;18401;49.344;6.240;2023-08-21T04:52:21;17.60;99.90
31837;DHT22;18401;49.344;6.240;2023-08-21T04:54:50;17.60;99.90
31837;DHT22;18401;49.344;6.240;2023-08-21T04:57:16;17.60;99.90
31837;DHT22;18401;49.344;6.240;2023-08-21T04:59:47;17.60;99.90
31837;DHT22;18401;49.344;6.240;2023-08-21T05:02:12;17.70;99.90
31837;DHT22;18401;49.344;6.240;2023-08-21T05:04:38;17.70;99.90
31837;DHT22;18401;49.344;6.240;2023-08-21T05:07:04;17.80;99.90
31837;DHT22;18401;49.344;6.240;2023-08-21T05:09:30;17.90;99.90
31837;DHT22;18401;49.344;6.240;2023-08-21T05:11:56;17.90;99.90
31837;DHT22;18401;49.344;6.240;2023-08-21T05:14:22;18.00;99.90
31837;DHT22;18401;49.344;6.240;2023-08-21T05:16:49;18.10;99.90
31837;DHT22;18401;49.344;6.240;2023-08-21T05:19:15;18.20;99.90
31837;DHT22;18401;49.344;6.240;2023-08-21T05:21:41;18.20;99.90
31837;DHT22;18401;49.344;6.240;2023-08-21T05:24:06;18.30;99.90
31837;DHT22;18401;49.344;6.240;2023-08-21T05:26:32;18.30;99.90
31837;DHT22;18401;49.344;6.240;2023-08-21T05:28:58;18.40;99.90
31837;DHT22;18401;49.344;6.240;2023-08-21T05:31:23;18.50;99.90
31837;DHT22;18401;49.344;6.240;2023-08-21T05:33:49;18.50;99.90
31837;DHT22;18401;49.344;6.240;2023-08-21T05:36:15;18.50;99.90
31837;DHT22;18401;49.344;6.240;2023-08-21T05:38:40;18.60;99.90
31837;DHT22;18401;49.344;6.240;2023-08-21T05:41:06;18.60;99.90
31837;DHT22;18401;49.344;6.240;2023-08-21T05:43:33;18.60;99.90
31837;DHT22;18401;49.344;6.240;2023-08-21T05:45:59;18.70;99.90
31837;DHT22;18401;49.344;6.240;2023-08-21T05:48:25;18.80;99.90
31837;DHT22;18401;49.344;6.240;2023-08-21T05:50:54;18.90;99.90
31837;DHT22;18401;49.344;6.240;2023-08-21T05:53:20;19.00;99.90
31837;DHT22;18401;49.344;6.240;2023-08-21T05:55:45;19.10;99.90
31837;DHT22;18401;49.344;6.240;2023-08-21T05:58:11;19.10;99.90
31837;DHT22;18401;49.344;6.240;2023-08-21T06:00:38;19.10;99.90
31837;DHT22;18401;49.344;6.240;2023-08-21T06:03:04;19.00;99.90
31837;DHT22;18401;49.344;6.240;2023-08-21T06:05:30;19.00;99.90
31837;DHT22;18401;49.344;6.240;2023-08-21T06:07:56;19.00;99.90
31837;DHT22;18401;49.344;6.240;2023-08-21T06:10:21;19.00;99.90
31837;DHT22;18401;49.344;6.240;2023-08-21T06:12:47;19.00;99.90
31837;DHT22;18401;49.344;6.240;2023-08-21T06:15:13;19.00;99.90
31837;DHT22;18401;49.344;6.240;2023-08-21T06:17:39;19.10;99.90
31837;DHT22;18401;49.344;6.240;2023-08-21T06:20:06;19.20;99.90
31837;DHT22;18401;49.344;6.240;2023-08-21T06:22:34;19.10;99.90
31837;DHT22;18401;49.344;6.240;2023-08-21T06:25:01;19.30;99.90
31837;DHT22;18401;49.344;6.240;2023-08-21T06:27:26;19.40;99.90
31837;DHT22;18401;49.344;6.240;2023-08-21T06:29:52;19.60;99.90
31837;DHT22;18401;49.344;6.240;2023-08-21T06:32:17;19.80;99.90
31837;DHT22;18401;49.344;6.240;2023-08-21T06:34:43;19.90;99.90
31837;DHT22;18401;49.344;6.240;2023-08-21T06:37:09;20.10;99.90
31837;DHT22;18401;49.344;6.240;2023-08-21T06:39:35;20.10;99.90
31837;DHT22;18401;49.344;6.240;2023-08-21T06:42:01;20.20;99.90
31837;DHT22;18401;49.344;6.240;2023-08-21T06:44:27;20.40;99.90
31837;DHT22;18401;49.344;6.240;2023-08-21T06:46:52;20.60;99.90
31837;DHT22;18401;49.344;6.240;2023-08-21T06:49:18;20.70;99.90
31837;DHT22;18401;49.344;6.240;2023-08-21T06:51:44;20.80;99.90
31837;DHT22;18401;49.344;6.240;2023-08-21T06:54:09;21.00;99.90
31837;DHT22;18401;49.344;6.240;2023-08-21T06:56:35;21.20;99.90
31837;DHT22;18401;49.344;6.240;2023-08-21T06:59:01;21.20;99.90
31837;DHT22;18401;49.344;6.240;2023-08-21T07:01:27;21.30;99.90
31837;DHT22;18401;49.344;6.240;2023-08-21T07:03:53;21.40;99.90
31837;DHT22;18401;49.344;6.240;2023-08-21T07:06:19;21.60;99.90
31837;DHT22;18401;49.344;6.240;2023-08-21T07:08:45;21.70;99.90
31837;DHT22;18401;49.344;6.240;2023-08-21T07:11:10;21.70;99.90
31837;DHT22;18401;49.344;6.240;2023-08-21T07:13:37;21.80;99.90
31837;DHT22;18401;49.344;6.240;2023-08-21T07:16:03;21.70;99.90
31837;DHT22;18401;49.344;6.240;2023-08-21T07:18:34;21.70;99.90
31837;DHT22;18401;49.344;6.240;2023-08-21T07:21:01;21.80;99.90
31837;DHT22;18401;49.344;6.240;2023-08-21T07:23:27;22.00;99.90
31837;DHT22;18401;49.344;6.240;2023-08-21T07:25:53;22.10;99.90
31837;DHT22;18401;49.344;6.240;2023-08-21T07:28:18;22.20;99.90
31837;DHT22;18401;49.344;6.240;2023-08-21T07:30:44;22.30;99.90
31837;DHT22;18401;49.344;6.240;2023-08-21T07:33:09;22.40;99.90
31837;DHT22;18401;49.344;6.240;2023-08-21T07:35:36;22.40;99.90
31837;DHT22;18401;49.344;6.240;2023-08-21T07:38:02;22.50;99.90
31837;DHT22;18401;49.344;6.240;2023-08-21T07:40:28;22.60;99.90
31837;DHT22;18401;49.344;6.240;2023-08-21T07:42:55;22.70;99.90
31837;DHT22;18401;49.344;6.240;2023-08-21T07:45:21;22.80;99.90
31837;DHT22;18401;49.344;6.240;2023-08-21T07:47:47;22.80;99.90
31837;DHT22;18401;49.344;6.240;2023-08-21T07:50:13;23.00;99.90
31837;DHT22;18401;49.344;6.240;2023-08-21T07:52:40;23.00;99.90
31837;DHT22;18401;49.344;6.240;2023-08-21T07:55:05;23.10;99.90
31837;DHT22;18401;49.344;6.240;2023-08-21T07:57:31;23.20;99.90
31837;DHT22;18401;49.344;6.240;2023-08-21T07:59:57;23.30;99.90
31837;DHT22;18401;49.344;6.240;2023-08-21T08:02:24;23.60;99.90
31837;DHT22;18401;49.344;6.240;2023-08-21T08:04:50;23.80;99.90
31837;DHT22;18401;49.344;6.240;2023-08-21T08:07:16;23.80;99.90
31837;DHT22;18401;49.344;6.240;2023-08-21T08:09:42;23.90;99.90
31837;DHT22;18401;49.344;6.240;2023-08-21T08:12:08;24.10;99.90
31837;DHT22;18401;49.344;6.240;2023-08-21T08:14:35;24.40;99.90
31837;DHT22;18401;49.344;6.240;2023-08-21T08:17:00;24.50;99.90
31837;DHT22;18401;49.344;6.240;2023-08-21T08:19:27;24.50;99.90
31837;DHT22;18401;49.344;6.240;2023-08-21T08:21:53;24.60;99.90
31837;DHT22;18401;49.344;6.240;2023-08-21T08:24:19;24.60;99.90
31837;DHT22;18401;49.344;6.240;2023-08-21T08:26:44;24.70;99.90
31837;DHT22;18401;49.344;6.240;2023-08-21T08:29:11;24.90;99.90
31837;DHT22;18401;49.344;6.240;2023-08-21T08:31:37;25.10;99.90
31837;DHT22;18401;49.344;6.240;2023-08-21T08:34:04;25.20;99.90
31837;DHT22;18401;49.344;6.240;2023-08-21T08:36:30;25.30;99.90
31837;DHT22;18401;49.344;6.240;2023-08-21T08:38:55;25.40;99.90
31837;DHT22;18401;49.344;6.240;2023-08-21T08:41:24;25.70;99.90
31837;DHT22;18401;49.344;6.240;2023-08-21T08:43:50;25.60;99.90
31837;DHT22;18401;49.344;6.240;2023-08-21T08:46:20;25.70;99.90
31837;DHT22;18401;49.344;6.240;2023-08-21T08:48:45;25.80;99.90
31837;DHT22;18401;49.344;6.240;2023-08-21T08:51:12;25.90;99.90
31837;DHT22;18401;49.344;6.240;2023-08-21T08:53:39;26.00;99.90
31837;DHT22;18401;49.344;6.240;2023-08-21T08:56:05;26.10;99.90
31837;DHT22;18401;49.344;6.240;2023-08-21T08:58:30;26.10;99.90
31837;DHT22;18401;49.344;6.240;2023-08-21T09:00:56;26.30;99.90
31837;DHT22;18401;49.344;6.240;2023-08-21T09:03:22;26.40;99.90
31837;DHT22;18401;49.344;6.240;2023-08-21T09:05:47;26.70;99.90
31837;DHT22;18401;49.344;6.240;2023-08-21T09:08:14;27.00;99.90
31837;DHT22;18401;49.344;6.240;2023-08-21T09:10:41;27.10;99.90
31837;DHT22;18401;49.344;6.240;2023-08-21T09:13:18;27.00;99.90
31837;DHT22;18401;49.344;6.240;2023-08-21T09:15:45;27.10;99.90
31837;DHT22;18401;49.344;6.240;2023-08-21T09:18:13;27.10;99.90
31837;DHT22;18401;49.344;6.240;2023-08-21T09:20:40;27.30;99.90
31837;DHT22;18401;49.344;6.240;2023-08-21T09:23:07;27.60;99.90
31837;DHT22;18401;49.344;6.240;2023-08-21T09:25:38;27.60;99.90
31837;DHT22;18401;49.344;6.240;2023-08-21T09:28:08;27.70;99.90
31837;DHT22;18401;49.344;6.240;2023-08-21T09:30:46;27.50;99.90
31837;DHT22;18401;49.344;6.240;2023-08-21T09:33:12;27.70;99.90
31837;DHT22;18401;49.344;6.240;2023-08-21T09:35:38;28.00;99.90
31837;DHT22;18401;49.344;6.240;2023-08-21T09:38:05;27.90;99.90
31837;DHT22;18401;49.344;6.240;2023-08-21T09:40:32;28.00;99.90
31837;DHT22;18401;49.344;6.240;2023-08-21T09:42:58;28.20;99.90
31837;DHT22;18401;49.344;6.240;2023-08-21T09:45:26;28.20;99.90
31837;DHT22;18401;49.344;6.240;2023-08-21T09:47:53;28.00;99.90
31837;DHT22;18401;49.344;6.240;2023-08-21T09:50:19;28.00;99.90
31837;DHT22;18401;49.344;6.240;2023-08-21T09:52:46;28.30;99.90
31837;DHT22;18401;49.344;6.240;2023-08-21T09:55:14;28.60;99.90
31837;DHT22;18401;49.344;6.240;2023-08-21T09:57:40;28.70;99.90
31837;DHT22;18401;49.344;6.240;2023-08-21T10:00:07;29.30;99.90
31837;DHT22;18401;49.344;6.240;2023-08-21T10:02:50;29.30;99.90
31837;DHT22;18401;49.344;6.240;2023-08-21T10:05:17;29.20;99.90
31837;DHT22;18401;49.344;6.240;2023-08-21T10:07:45;29.40;99.90
31837;DHT22;18401;49.344;6.240;2023-08-21T10:10:12;29.40;99.90
31837;DHT22;18401;49.344;6.240;2023-08-21T10:12:38;29.50;99.90
31837;DHT22;18401;49.344;6.240;2023-08-21T10:15:05;30.00;99.90
31837;DHT22;18401;49.344;6.240;2023-08-21T10:17:32;29.60;99.90
31837;DHT22;18401;49.344;6.240;2023-08-21T10:20:08;30.30;99.90
31837;DHT22;18401;49.344;6.240;2023-08-21T10:22:49;30.90;99.90
31837;DHT22;18401;49.344;6.240;2023-08-21T10:25:20;31.20;99.90
31837;DHT22;18401;49.344;6.240;2023-08-21T10:27:50;30.80;97.30
31837;DHT22;18401;49.344;6.240;2023-08-21T10:30:24;31.30;71.40
31837;DHT22;18401;49.344;6.240;2023-08-21T10:32:52;31.70;62.40
31837;DHT22;18401;49.344;6.240;2023-08-21T10:35:23;32.00;72.00
31837;DHT22;18401;49.344;6.240;2023-08-21T10:40:39;31.50;82.70
31837;DHT22;18401;49.344;6.240;2023-08-21T10:43:40;30.70;99.90
31837;DHT22;18401;49.344;6.240;2023-08-21T10:46:07;31.30;90.50
31837;DHT22;18401;49.344;6.240;2023-08-21T10:48:34;31.40;93.50
31837;DHT22;18401;49.344;6.240;2023-08-21T10:51:05;31.30;81.60
31837;DHT22;18401;49.344;6.240;2023-08-21T10:53:31;31.20;91.90
31837;DHT22;18401;49.344;6.240;2023-08-21T10:56:04;32.30;57.90
31837;DHT22;18401;49.344;6.240;2023-08-21T10:58:41;33.40;51.00
31837;DHT22;18401;49.344;6.240;2023-08-21T11:01:07;32.80;47.40
31837;DHT22;18401;49.344;6.240;2023-08-21T11:03:33;31.10;54.10
31837;DHT22;18401;49.344;6.240;2023-08-21T11:06:07;29.70;96.90
31837;DHT22;18401;49.344;6.240;2023-08-21T11:08:33;29.80;95.10
31837;DHT22;18401;49.344;6.240;2023-08-21T11:11:03;30.50;93.90
31837;DHT22;18401;49.344;6.240;2023-08-21T11:13:29;31.40;99.90
31837;DHT22;18401;49.344;6.240;2023-08-21T11:16:05;32.50;61.90
31837;DHT22;18401;49.344;6.240;2023-08-21T11:18:37;33.30;29.20
31837;DHT22;18401;49.344;6.240;2023-08-21T11:21:09;34.10;21.90
31837;DHT22;18401;49.344;6.240;2023-08-21T11:23:36;32.30;99.90
31837;DHT22;18401;49.344;6.240;2023-08-21T11:26:03;31.40;72.20
31837;DHT22;18401;49.344;6.240;2023-08-21T11:28:29;30.60;65.30
31837;DHT22;18401;49.344;6.240;2023-08-21T11:30:56;30.10;99.30
31837;DHT22;18401;49.344;6.240;2023-08-21T11:33:22;31.20;81.50
31837;DHT22;18401;49.344;6.240;2023-08-21T11:35:49;30.80;39.90
31837;DHT22;18401;49.344;6.240;2023-08-21T11:38:17;31.20;44.50
31837;DHT22;18401;49.344;6.240;2023-08-21T11:40:58;30.30;96.50
31837;DHT22;18401;49.344;6.240;2023-08-21T11:43:40;30.70;92.30
31837;DHT22;18401;49.344;6.240;2023-08-21T11:46:08;31.90;65.30
31837;DHT22;18401;49.344;6.240;2023-08-21T11:48:37;32.20;98.30
31837;DHT22;18401;49.344;6.240;2023-08-21T11:51:02;31.90;66.80
31837;DHT22;18401;49.344;6.240;2023-08-21T11:53:39;32.40;41.20
31837;DHT22;18401;49.344;6.240;2023-08-21T11:56:14;32.70;83.50
31837;DHT22;18401;49.344;6.240;2023-08-21T11:58:40;33.20;45.70
31837;DHT22;18401;49.344;6.240;2023-08-21T12:01:06;32.80;61.50
31837;DHT22;18401;49.344;6.240;2023-08-21T12:03:39;31.50;92.00
31837;DHT22;18401;49.344;6.240;2023-08-21T12:06:06;30.90;94.40
31837;DHT22;18401;49.344;6.240;2023-08-21T12:08:32;31.50;75.60
31837;DHT22;18401;49.344;6.240;2023-08-21T12:10:58;31.50;42.80
31837;DHT22;18401;49.344;6.240;2023-08-21T12:13:23;32.30;55.50
31837;DHT22;18401;49.344;6.240;2023-08-21T12:15:49;32.40;36.40
31837;DHT22;18401;49.344;6.240;2023-08-21T12:18:14;32.60;78.80
31837;DHT22;18401;49.344;6.240;2023-08-21T12:20:40;32.80;56.70
31837;DHT22;18401;49.344;6.240;2023-08-21T12:23:06;32.50;34.30
31837;DHT22;18401;49.344;6.240;2023-08-21T12:25:31;32.50;26.30
31837;DHT22;18401;49.344;6.240;2023-08-21T12:27:57;31.90;37.10
31837;DHT22;18401;49.344;6.240;2023-08-21T12:30:23;31.50;23.20
31837;DHT22;18401;49.344;6.240;2023-08-21T12:32:49;32.20;35.80
31837;DHT22;18401;49.344;6.240;2023-08-21T12:35:14;32.50;33.90
31837;DHT22;18401;49.344;6.240;2023-08-21T12:37:40;32.20;12.90
31837;DHT22;18401;49.344;6.240;2023-08-21T12:40:07;31.50;22.50
31837;DHT22;18401;49.344;6.240;2023-08-21T12:42:32;30.50;29.60
31837;DHT22;18401;49.344;6.240;2023-08-21T12:44:58;29.90;39.80
31837;DHT22;18401;49.344;6.240;2023-08-21T12:47:24;30.80;52.60
31837;DHT22;18401;49.344;6.240;2023-08-21T12:49:49;30.50;49.00
31837;DHT22;18401;49.344;6.240;2023-08-21T12:52:15;30.60;44.90
31837;DHT22;18401;49.344;6.240;2023-08-21T12:54:41;30.00;42.60
31837;DHT22;18401;49.344;6.240;2023-08-21T12:57:07;29.50;49.30
31837;DHT22;18401;49.344;6.240;2023-08-21T12:59:33;29.80;59.10
31837;DHT22;18401;49.344;6.240;2023-08-21T13:01:59;31.30;65.30
31837;DHT22;18401;49.344;6.240;2023-08-21T13:04:29;32.30;41.70
31837;DHT22;18401;49.344;6.240;2023-08-21T13:06:55;32.10;21.90
31837;DHT22;18401;49.344;6.240;2023-08-21T13:09:20;32.70;17.50
31837;DHT22;18401;49.344;6.240;2023-08-21T13:11:46;33.60;1.00
31837;DHT22;18401;49.344;6.240;2023-08-21T13:14:12;32.20;1.00
31837;DHT22;18401;49.344;6.240;2023-08-21T13:16:37;32.10;17.00
31837;DHT22;18401;49.344;6.240;2023-08-21T13:19:03;31.80;35.40
31837;DHT22;18401;49.344;6.240;2023-08-21T13:21:28;31.30;28.60
31837;DHT22;18401;49.344;6.240;2023-08-21T13:23:54;31.40;27.40
31837;DHT22;18401;49.344;6.240;2023-08-21T13:26:20;31.30;21.60
31837;DHT22;18401;49.344;6.240;2023-08-21T13:28:45;31.60;41.10
31837;DHT22;18401;49.344;6.240;2023-08-21T13:31:11;31.80;10.10
31837;DHT22;18401;49.344;6.240;2023-08-21T13:33:50;31.40;20.10
31837;DHT22;18401;49.344;6.240;2023-08-21T13:36:17;31.10;46.20
31837;DHT22;18401;49.344;6.240;2023-08-21T13:38:45;31.20;14.40
31837;DHT22;18401;49.344;6.240;2023-08-21T13:41:11;30.90;17.90
31837;DHT22;18401;49.344;6.240;2023-08-21T13:43:37;31.20;17.50
31837;DHT22;18401;49.344;6.240;2023-08-21T13:46:03;31.60;19.00
31837;DHT22;18401;49.344;6.240;2023-08-21T13:48:34;32.00;21.90
31837;DHT22;18401;49.344;6.240;2023-08-21T13:50:59;32.30;6.80
31837;DHT22;18401;49.344;6.240;2023-08-21T13:53:25;31.40;22.80
31837;DHT22;18401;49.344;6.240;2023-08-21T13:55:51;31.30;16.10
31837;DHT22;18401;49.344;6.240;2023-08-21T13:58:16;31.00;37.10
31837;DHT22;18401;49.344;6.240;2023-08-21T14:00:42;31.00;37.20
31837;DHT22;18401;49.344;6.240;2023-08-21T14:03:10;31.00;42.30
31837;DHT22;18401;49.344;6.240;2023-08-21T14:05:36;31.60;27.70
31837;DHT22;18401;49.344;6.240;2023-08-21T14:08:01;31.80;22.20
31837;DHT22;18401;49.344;6.240;2023-08-21T14:10:27;31.20;58.40
31837;DHT22;18401;49.344;6.240;2023-08-21T14:12:53;31.20;27.70
31837;DHT22;18401;49.344;6.240;2023-08-21T14:15:19;31.60;9.20
31837;DHT22;18401;49.344;6.240;2023-08-21T14:17:45;31.70;26.40
31837;DHT22;18401;49.344;6.240;2023-08-21T14:20:11;31.80;50.30
31837;DHT22;18401;49.344;6.240;2023-08-21T14:22:37;31.80;16.70
31837;DHT22;18401;49.344;6.240;2023-08-21T14:25:03;31.80;22.40
31837;DHT22;18401;49.344;6.240;2023-08-21T14:27:32;31.50;33.20
31837;DHT22;18401;49.344;6.240;2023-08-21T14:29:58;31.20;15.50
31837;DHT22;18401;49.344;6.240;2023-08-21T14:32:24;31.30;36.10
31837;DHT22;18401;49.344;6.240;2023-08-21T14:34:50;31.70;17.60
31837;DHT22;18401;49.344;6.240;2023-08-21T14:37:18;31.50;51.70
31837;DHT22;18401;49.344;6.240;2023-08-21T14:39:44;31.30;50.70
31837;DHT22;18401;49.344;6.240;2023-08-21T14:42:09;30.20;27.40
31837;DHT22;18401;49.344;6.240;2023-08-21T14:44:35;30.10;39.40
31837;DHT22;18401;49.344;6.240;2023-08-21T14:47:01;30.10;24.40
31837;DHT22;18401;49.344;6.240;2023-08-21T14:49:26;30.00;43.90
31837;DHT22;18401;49.344;6.240;2023-08-21T14:51:53;31.00;76.90
31837;DHT22;18401;49.344;6.240;2023-08-21T14:54:18;31.50;54.20
31837;DHT22;18401;49.344;6.240;2023-08-21T14:56:44;31.60;39.20
31837;DHT22;18401;49.344;6.240;2023-08-21T14:59:10;32.20;25.40
31837;DHT22;18401;49.344;6.240;2023-08-21T15:01:37;31.90;4.90
31837;DHT22;18401;49.344;6.240;2023-08-21T15:04:03;31.10;19.20
31837;DHT22;18401;49.344;6.240;2023-08-21T15:06:29;31.40;22.00
31837;DHT22;18401;49.344;6.240;2023-08-21T15:08:55;31.30;14.50
31837;DHT22;18401;49.344;6.240;2023-08-21T15:11:20;30.90;18.20
31837;DHT22;18401;49.344;6.240;2023-08-21T15:13:46;30.80;31.30
31837;DHT22;18401;49.344;6.240;2023-08-21T15:16:12;31.20;26.90
31837;DHT22;18401;49.344;6.240;2023-08-21T15:18:37;31.10;20.70
31837;DHT22;18401;49.344;6.240;2023-08-21T15:21:03;30.10;32.80
31837;DHT22;18401;49.344;6.240;2023-08-21T15:23:29;29.60;46.40
31837;DHT22;18401;49.344;6.240;2023-08-21T15:25:54;30.20;40.60
31837;DHT22;18401;49.344;6.240;2023-08-21T15:28:20;30.40;39.30
31837;DHT22;18401;49.344;6.240;2023-08-21T15:30:45;31.30;33.90